< < Back
Terminal Aerodrome Forecast


Current Version              Previous Versions:   1  2  3  4  5  6  7  8  9  

Terminal Aerodrome Forecast

508
FTUS42 KMLB 021510 AAC
TAFMCO
TAF AMD
KMCO 021510Z 0215/0312 05004KT P6SM OVC004
      TEMPO 0215/0216 6SM BR HZ SCT004 BKN015
     FM021630 06006KT P6SM SCT015 BKN025
     FM030000 06007KT P6SM SCT040 BKN250
     FM030500 02004KT 5SM BR SCT003
      TEMPO 0308/0312 1SM BR BKN002=

Latest METAR

543
SAUS70 KWBC 021902
MTRMCO
METAR KMCO 021853Z 00000KT 10SM SCT031 26/18 A3023 RMK AO2 SLP236
T02610183


USA.gov is the U.S. government's official web portal to all federal, state and local government web resources and services.